sensor_id;sensor_type;location;lat;lon;timestamp;temperature;humidity
5711;DHT22;61291;52.524;13.422;2022-12-29T00:01:49;8.80;99.90
5711;DHT22;61291;52.524;13.422;2022-12-29T00:04:14;8.80;99.90
5711;DHT22;61291;52.524;13.422;2022-12-29T00:06:41;8.90;99.90
5711;DHT22;61291;52.524;13.422;2022-12-29T00:09:06;8.90;99.90
5711;DHT22;61291;52.524;13.422;2022-12-29T00:11:32;8.90;99.90
5711;DHT22;61291;52.524;13.422;2022-12-29T00:13:57;9.00;99.90
5711;DHT22;61291;52.524;13.422;2022-12-29T00:16:43;9.10;99.90
5711;DHT22;61291;52.524;13.422;2022-12-29T00:19:09;9.10;99.90
5711;DHT22;61291;52.524;13.422;2022-12-29T00:21:53;9.10;99.90
5711;DHT22;61291;52.524;13.422;2022-12-29T00:24:37;9.20;99.90
5711;DHT22;61291;52.524;13.422;2022-12-29T00:27:21;9.20;99.90
5711;DHT22;61291;52.524;13.422;2022-12-29T00:30:10;9.20;99.90
5711;DHT22;61291;52.524;13.422;2022-12-29T00:33:16;9.30;99.90
5711;DHT22;61291;52.524;13.422;2022-12-29T00:38:45;9.30;99.90
5711;DHT22;61291;52.524;13.422;2022-12-29T00:41:30;9.30;99.90
5711;DHT22;61291;52.524;13.422;2022-12-29T00:44:14;9.30;99.90
5711;DHT22;61291;52.524;13.422;2022-12-29T00:46:41;9.30;99.90
5711;DHT22;61291;52.524;13.422;2022-12-29T00:49:08;9.30;99.90
5711;DHT22;61291;52.524;13.422;2022-12-29T00:51:54;9.30;99.90
5711;DHT22;61291;52.524;13.422;2022-12-29T00:54:20;9.30;99.90
5711;DHT22;61291;52.524;13.422;2022-12-29T00:56:50;9.40;99.90
5711;DHT22;61291;52.524;13.422;2022-12-29T00:59:16;9.30;99.90
5711;DHT22;61291;52.524;13.422;2022-12-29T01:01:42;9.30;99.90
5711;DHT22;61291;52.524;13.422;2022-12-29T01:04:09;9.30;99.90
5711;DHT22;61291;52.524;13.422;2022-12-29T01:06:36;9.30;99.90
5711;DHT22;61291;52.524;13.422;2022-12-29T01:09:02;9.30;99.90
5711;DHT22;61291;52.524;13.422;2022-12-29T01:11:47;9.20;99.90
5711;DHT22;61291;52.524;13.422;2022-12-29T01:14:12;9.20;99.90
5711;DHT22;61291;52.524;13.422;2022-12-29T01:16:38;9.20;99.90
5711;DHT22;61291;52.524;13.422;2022-12-29T01:19:03;9.20;99.90
5711;DHT22;61291;52.524;13.422;2022-12-29T01:21:29;9.20;99.90
5711;DHT22;61291;52.524;13.422;2022-12-29T01:23:55;9.30;99.90
5711;DHT22;61291;52.524;13.422;2022-12-29T01:26:20;9.30;99.90
5711;DHT22;61291;52.524;13.422;2022-12-29T01:28:46;9.30;99.90
5711;DHT22;61291;52.524;13.422;2022-12-29T01:31:13;9.30;99.90
5711;DHT22;61291;52.524;13.422;2022-12-29T01:33:39;9.30;99.90
5711;DHT22;61291;52.524;13.422;2022-12-29T01:36:08;9.30;99.90
5711;DHT22;61291;52.524;13.422;2022-12-29T01:38:36;9.30;99.90
5711;DHT22;61291;52.524;13.422;2022-12-29T01:41:01;9.40;99.90
5711;DHT22;61291;52.524;13.422;2022-12-29T01:43:50;9.40;99.90
5711;DHT22;61291;52.524;13.422;2022-12-29T01:46:28;9.40;99.90
5711;DHT22;61291;52.524;13.422;2022-12-29T01:49:02;9.40;99.90
5711;DHT22;61291;52.524;13.422;2022-12-29T01:51:31;9.30;99.90
5711;DHT22;61291;52.524;13.422;2022-12-29T01:53:59;9.30;99.90
5711;DHT22;61291;52.524;13.422;2022-12-29T01:56:26;9.30;99.90
5711;DHT22;61291;52.524;13.422;2022-12-29T01:58:57;9.30;99.90
5711;DHT22;61291;52.524;13.422;2022-12-29T02:01:25;9.30;99.90
5711;DHT22;61291;52.524;13.422;2022-12-29T02:03:51;9.30;99.90
5711;DHT22;61291;52.524;13.422;2022-12-29T02:06:21;9.30;99.90
5711;DHT22;61291;52.524;13.422;2022-12-29T02:08:50;9.30;99.90
5711;DHT22;61291;52.524;13.422;2022-12-29T02:11:16;9.30;99.90
5711;DHT22;61291;52.524;13.422;2022-12-29T02:13:42;9.30;99.90
5711;DHT22;61291;52.524;13.422;2022-12-29T02:16:18;9.30;99.90
5711;DHT22;61291;52.524;13.422;2022-12-29T02:19:07;9.20;99.90
5711;DHT22;61291;52.524;13.422;2022-12-29T02:24:47;9.20;99.90
5711;DHT22;61291;52.524;13.422;2022-12-29T02:27:29;9.20;99.90
5711;DHT22;61291;52.524;13.422;2022-12-29T02:30:01;9.20;99.90
5711;DHT22;61291;52.524;13.422;2022-12-29T02:35:41;9.10;99.90
5711;DHT22;61291;52.524;13.422;2022-12-29T02:38:44;9.10;99.90
5711;DHT22;61291;52.524;13.422;2022-12-29T02:41:29;9.20;99.90
5711;DHT22;61291;52.524;13.422;2022-12-29T02:44:21;9.20;99.90
5711;DHT22;61291;52.524;13.422;2022-12-29T02:46:54;9.20;99.90
5711;DHT22;61291;52.524;13.422;2022-12-29T02:49:46;9.30;99.90
5711;DHT22;61291;52.524;13.422;2022-12-29T02:52:16;9.30;99.90
5711;DHT22;61291;52.524;13.422;2022-12-29T02:54:43;9.40;99.90
5711;DHT22;61291;52.524;13.422;2022-12-29T02:59:49;9.50;99.90
5711;DHT22;61291;52.524;13.422;2022-12-29T03:02:49;9.60;99.90
5711;DHT22;61291;52.524;13.422;2022-12-29T03:11:01;9.80;99.90
5711;DHT22;61291;52.524;13.422;2022-12-29T03:13:39;9.80;99.90
5711;DHT22;61291;52.524;13.422;2022-12-29T03:16:38;9.90;99.90
5711;DHT22;61291;52.524;13.422;2022-12-29T03:19:17;9.90;99.90
5711;DHT22;61291;52.524;13.422;2022-12-29T03:21:48;10.00;99.90
5711;DHT22;61291;52.524;13.422;2022-12-29T03:24:37;10.00;99.90
5711;DHT22;61291;52.524;13.422;2022-12-29T03:27:06;10.10;99.90
5711;DHT22;61291;52.524;13.422;2022-12-29T03:29:38;10.10;99.90
5711;DHT22;61291;52.524;13.422;2022-12-29T03:32:05;10.20;99.90
5711;DHT22;61291;52.524;13.422;2022-12-29T03:34:31;10.20;99.90
5711;DHT22;61291;52.524;13.422;2022-12-29T03:37:06;10.20;99.90
5711;DHT22;61291;52.524;13.422;2022-12-29T03:39:34;10.30;99.90
5711;DHT22;61291;52.524;13.422;2022-12-29T03:42:04;10.30;99.90
5711;DHT22;61291;52.524;13.422;2022-12-29T03:44:37;10.30;99.90
5711;DHT22;61291;52.524;13.422;2022-12-29T03:47:03;10.30;99.90
5711;DHT22;61291;52.524;13.422;2022-12-29T03:49:29;10.30;99.90
5711;DHT22;61291;52.524;13.422;2022-12-29T03:51:54;10.30;99.90
5711;DHT22;61291;52.524;13.422;2022-12-29T03:54:21;10.30;99.90
5711;DHT22;61291;52.524;13.422;2022-12-29T03:56:46;10.30;99.90
5711;DHT22;61291;52.524;13.422;2022-12-29T03:59:12;10.40;99.90
5711;DHT22;61291;52.524;13.422;2022-12-29T04:01:37;10.40;99.90
5711;DHT22;61291;52.524;13.422;2022-12-29T04:04:03;10.40;99.90
5711;DHT22;61291;52.524;13.422;2022-12-29T04:06:29;10.50;99.90
5711;DHT22;61291;52.524;13.422;2022-12-29T04:08:54;10.50;99.90
5711;DHT22;61291;52.524;13.422;2022-12-29T04:11:21;10.50;99.90
5711;DHT22;61291;52.524;13.422;2022-12-29T04:13:46;10.50;99.90
5711;DHT22;61291;52.524;13.422;2022-12-29T04:16:12;10.50;99.90
5711;DHT22;61291;52.524;13.422;2022-12-29T04:18:37;10.60;99.90
5711;DHT22;61291;52.524;13.422;2022-12-29T04:21:03;10.60;99.90
5711;DHT22;61291;52.524;13.422;2022-12-29T04:23:32;10.60;99.90
5711;DHT22;61291;52.524;13.422;2022-12-29T04:25:58;10.60;99.90
5711;DHT22;61291;52.524;13.422;2022-12-29T04:28:24;10.60;99.90
5711;DHT22;61291;52.524;13.422;2022-12-29T04:30:50;10.60;99.90
5711;DHT22;61291;52.524;13.422;2022-12-29T04:33:15;10.60;99.90
5711;DHT22;61291;52.524;13.422;2022-12-29T04:35:42;10.60;99.90
5711;DHT22;61291;52.524;13.422;2022-12-29T04:38:08;10.60;99.90
5711;DHT22;61291;52.524;13.422;2022-12-29T04:40:33;10.60;99.90
5711;DHT22;61291;52.524;13.422;2022-12-29T04:42:59;10.50;99.90
5711;DHT22;61291;52.524;13.422;2022-12-29T04:45:24;10.50;99.90
5711;DHT22;61291;52.524;13.422;2022-12-29T04:47:50;10.50;99.90
5711;DHT22;61291;52.524;13.422;2022-12-29T04:50:15;10.50;99.90
5711;DHT22;61291;52.524;13.422;2022-12-29T04:52:41;10.40;99.90
5711;DHT22;61291;52.524;13.422;2022-12-29T04:55:07;10.40;99.90
5711;DHT22;61291;52.524;13.422;2022-12-29T04:57:32;10.30;99.90
5711;DHT22;61291;52.524;13.422;2022-12-29T04:59:58;10.30;99.90
5711;DHT22;61291;52.524;13.422;2022-12-29T05:02:23;10.30;99.90
5711;DHT22;61291;52.524;13.422;2022-12-29T05:04:49;10.30;99.90
5711;DHT22;61291;52.524;13.422;2022-12-29T05:07:15;10.30;99.90
5711;DHT22;61291;52.524;13.422;2022-12-29T05:09:40;10.30;99.90
5711;DHT22;61291;52.524;13.422;2022-12-29T05:12:06;10.40;99.90
5711;DHT22;61291;52.524;13.422;2022-12-29T05:14:31;10.40;99.90
5711;DHT22;61291;52.524;13.422;2022-12-29T05:16:57;10.40;99.90
5711;DHT22;61291;52.524;13.422;2022-12-29T05:19:22;10.40;99.90
5711;DHT22;61291;52.524;13.422;2022-12-29T05:21:48;10.50;99.90
5711;DHT22;61291;52.524;13.422;2022-12-29T05:24:13;10.50;99.90
5711;DHT22;61291;52.524;13.422;2022-12-29T05:26:40;10.50;99.90
5711;DHT22;61291;52.524;13.422;2022-12-29T05:29:06;10.50;99.90
5711;DHT22;61291;52.524;13.422;2022-12-29T05:31:31;10.50;99.90
5711;DHT22;61291;52.524;13.422;2022-12-29T05:33:57;10.50;99.90
5711;DHT22;61291;52.524;13.422;2022-12-29T05:36:22;10.50;99.90
5711;DHT22;61291;52.524;13.422;2022-12-29T05:38:48;10.60;99.90
5711;DHT22;61291;52.524;13.422;2022-12-29T05:41:13;10.60;99.90
5711;DHT22;61291;52.524;13.422;2022-12-29T05:43:39;10.60;99.90
5711;DHT22;61291;52.524;13.422;2022-12-29T05:46:04;10.70;99.90
5711;DHT22;61291;52.524;13.422;2022-12-29T05:48:30;10.70;99.90
5711;DHT22;61291;52.524;13.422;2022-12-29T05:50:55;10.80;99.90
5711;DHT22;61291;52.524;13.422;2022-12-29T05:53:21;10.80;99.90
5711;DHT22;61291;52.524;13.422;2022-12-29T05:55:47;10.90;99.90
5711;DHT22;61291;52.524;13.422;2022-12-29T05:58:13;10.90;99.90
5711;DHT22;61291;52.524;13.422;2022-12-29T06:00:40;11.00;99.90
5711;DHT22;61291;52.524;13.422;2022-12-29T06:03:05;11.00;99.90
5711;DHT22;61291;52.524;13.422;2022-12-29T06:05:30;11.00;99.90
5711;DHT22;61291;52.524;13.422;2022-12-29T06:07:56;11.00;99.90
5711;DHT22;61291;52.524;13.422;2022-12-29T06:10:21;11.10;99.90
5711;DHT22;61291;52.524;13.422;2022-12-29T06:12:47;11.10;99.90
5711;DHT22;61291;52.524;13.422;2022-12-29T06:15:13;11.20;99.90
5711;DHT22;61291;52.524;13.422;2022-12-29T06:17:39;11.20;99.90
5711;DHT22;61291;52.524;13.422;2022-12-29T06:20:05;11.30;99.90
5711;DHT22;61291;52.524;13.422;2022-12-29T06:22:31;11.30;99.90
5711;DHT22;61291;52.524;13.422;2022-12-29T06:24:56;11.30;99.90
5711;DHT22;61291;52.524;13.422;2022-12-29T06:27:22;11.40;99.90
5711;DHT22;61291;52.524;13.422;2022-12-29T06:29:47;11.40;99.90
5711;DHT22;61291;52.524;13.422;2022-12-29T06:32:13;11.40;99.90
5711;DHT22;61291;52.524;13.422;2022-12-29T06:34:38;11.40;99.90
5711;DHT22;61291;52.524;13.422;2022-12-29T06:37:04;11.40;99.90
5711;DHT22;61291;52.524;13.422;2022-12-29T06:39:29;11.40;99.90
5711;DHT22;61291;52.524;13.422;2022-12-29T06:41:55;11.40;99.90
5711;DHT22;61291;52.524;13.422;2022-12-29T06:44:21;11.40;99.90
5711;DHT22;61291;52.524;13.422;2022-12-29T06:46:46;11.40;99.90
5711;DHT22;61291;52.524;13.422;2022-12-29T06:49:12;11.40;99.90
5711;DHT22;61291;52.524;13.422;2022-12-29T06:51:37;11.40;99.90
5711;DHT22;61291;52.524;13.422;2022-12-29T06:54:03;11.40;99.90
5711;DHT22;61291;52.524;13.422;2022-12-29T06:56:28;11.40;99.90
5711;DHT22;61291;52.524;13.422;2022-12-29T06:58:54;11.40;99.90
5711;DHT22;61291;52.524;13.422;2022-12-29T07:01:19;11.40;99.90
5711;DHT22;61291;52.524;13.422;2022-12-29T07:03:45;11.30;99.90
5711;DHT22;61291;52.524;13.422;2022-12-29T07:06:10;11.20;99.90
5711;DHT22;61291;52.524;13.422;2022-12-29T07:08:36;11.10;99.90
5711;DHT22;61291;52.524;13.422;2022-12-29T07:11:01;11.00;99.90
5711;DHT22;61291;52.524;13.422;2022-12-29T07:13:27;10.90;99.90
5711;DHT22;61291;52.524;13.422;2022-12-29T07:15:52;10.90;99.90
5711;DHT22;61291;52.524;13.422;2022-12-29T07:18:18;10.80;99.90
5711;DHT22;61291;52.524;13.422;2022-12-29T07:20:43;10.80;99.90
5711;DHT22;61291;52.524;13.422;2022-12-29T07:23:09;10.70;99.90
5711;DHT22;61291;52.524;13.422;2022-12-29T07:25:34;10.80;99.90
5711;DHT22;61291;52.524;13.422;2022-12-29T07:28:01;10.90;99.90
5711;DHT22;61291;52.524;13.422;2022-12-29T07:30:27;10.90;99.90
5711;DHT22;61291;52.524;13.422;2022-12-29T07:32:52;10.80;99.90
5711;DHT22;61291;52.524;13.422;2022-12-29T07:35:18;10.80;99.90
5711;DHT22;61291;52.524;13.422;2022-12-29T07:37:43;10.80;99.90
5711;DHT22;61291;52.524;13.422;2022-12-29T07:40:09;10.80;99.90
5711;DHT22;61291;52.524;13.422;2022-12-29T07:42:35;10.80;99.90
5711;DHT22;61291;52.524;13.422;2022-12-29T07:45:00;10.80;99.90
5711;DHT22;61291;52.524;13.422;2022-12-29T07:47:26;10.80;99.90
5711;DHT22;61291;52.524;13.422;2022-12-29T07:49:52;10.80;99.90
5711;DHT22;61291;52.524;13.422;2022-12-29T07:52:17;10.90;99.90
5711;DHT22;61291;52.524;13.422;2022-12-29T07:54:42;11.00;99.90
5711;DHT22;61291;52.524;13.422;2022-12-29T07:57:08;11.00;99.90
5711;DHT22;61291;52.524;13.422;2022-12-29T07:59:34;11.20;99.90
5711;DHT22;61291;52.524;13.422;2022-12-29T08:01:59;11.30;99.90
5711;DHT22;61291;52.524;13.422;2022-12-29T08:04:25;11.40;99.90
5711;DHT22;61291;52.524;13.422;2022-12-29T08:06:50;11.40;99.90
5711;DHT22;61291;52.524;13.422;2022-12-29T08:09:16;11.50;99.90
5711;DHT22;61291;52.524;13.422;2022-12-29T08:11:42;11.60;99.90
5711;DHT22;61291;52.524;13.422;2022-12-29T08:14:08;11.60;99.90
5711;DHT22;61291;52.524;13.422;2022-12-29T08:16:34;11.60;99.90
5711;DHT22;61291;52.524;13.422;2022-12-29T08:18:59;11.70;99.90
5711;DHT22;61291;52.524;13.422;2022-12-29T08:21:27;11.80;99.90
5711;DHT22;61291;52.524;13.422;2022-12-29T08:23:52;11.80;99.90
5711;DHT22;61291;52.524;13.422;2022-12-29T08:26:18;11.80;99.90
5711;DHT22;61291;52.524;13.422;2022-12-29T08:28:43;11.90;99.90
5711;DHT22;61291;52.524;13.422;2022-12-29T08:31:09;11.90;99.90
5711;DHT22;61291;52.524;13.422;2022-12-29T08:33:35;11.90;99.90
5711;DHT22;61291;52.524;13.422;2022-12-29T08:36:03;11.70;99.90
5711;DHT22;61291;52.524;13.422;2022-12-29T08:38:29;11.70;99.90
5711;DHT22;61291;52.524;13.422;2022-12-29T08:40:55;11.60;99.90
5711;DHT22;61291;52.524;13.422;2022-12-29T08:43:21;11.50;99.90
5711;DHT22;61291;52.524;13.422;2022-12-29T08:45:47;11.50;99.90
5711;DHT22;61291;52.524;13.422;2022-12-29T08:48:12;11.50;99.90
5711;DHT22;61291;52.524;13.422;2022-12-29T08:50:38;11.50;99.90
5711;DHT22;61291;52.524;13.422;2022-12-29T08:53:03;11.50;99.90
5711;DHT22;61291;52.524;13.422;2022-12-29T08:55:29;11.60;99.90
5711;DHT22;61291;52.524;13.422;2022-12-29T08:57:54;11.70;99.90
5711;DHT22;61291;52.524;13.422;2022-12-29T09:00:20;11.90;99.90
5711;DHT22;61291;52.524;13.422;2022-12-29T09:02:46;12.10;99.90
5711;DHT22;61291;52.524;13.422;2022-12-29T09:05:11;12.20;99.90
5711;DHT22;61291;52.524;13.422;2022-12-29T09:07:37;12.30;99.90
5711;DHT22;61291;52.524;13.422;2022-12-29T09:10:03;12.30;99.90
5711;DHT22;61291;52.524;13.422;2022-12-29T09:12:28;12.30;99.90
5711;DHT22;61291;52.524;13.422;2022-12-29T09:14:54;12.30;99.90
5711;DHT22;61291;52.524;13.422;2022-12-29T09:17:19;12.20;99.90
5711;DHT22;61291;52.524;13.422;2022-12-29T09:20:04;12.10;99.90
5711;DHT22;61291;52.524;13.422;2022-12-29T09:22:30;12.20;99.90
5711;DHT22;61291;52.524;13.422;2022-12-29T09:24:55;12.20;99.90
5711;DHT22;61291;52.524;13.422;2022-12-29T09:27:21;12.20;99.90
5711;DHT22;61291;52.524;13.422;2022-12-29T09:29:46;12.30;99.90
5711;DHT22;61291;52.524;13.422;2022-12-29T09:32:12;12.30;99.90
5711;DHT22;61291;52.524;13.422;2022-12-29T09:34:37;12.40;99.90
5711;DHT22;61291;52.524;13.422;2022-12-29T09:37:03;12.40;99.90
5711;DHT22;61291;52.524;13.422;2022-12-29T09:39:28;12.30;99.90
5711;DHT22;61291;52.524;13.422;2022-12-29T09:42:15;12.30;99.90
5711;DHT22;61291;52.524;13.422;2022-12-29T09:47:21;12.40;99.90
5711;DHT22;61291;52.524;13.422;2022-12-29T09:52:47;12.50;99.90
5711;DHT22;61291;52.524;13.422;2022-12-29T09:55:19;12.70;99.90
5711;DHT22;61291;52.524;13.422;2022-12-29T09:57:54;12.90;99.90
5711;DHT22;61291;52.524;13.422;2022-12-29T10:00:23;13.00;99.90
5711;DHT22;61291;52.524;13.422;2022-12-29T10:02:56;13.10;99.90
5711;DHT22;61291;52.524;13.422;2022-12-29T10:05:53;13.20;99.90
5711;DHT22;61291;52.524;13.422;2022-12-29T10:08:32;13.30;99.90
5711;DHT22;61291;52.524;13.422;2022-12-29T10:11:14;13.20;99.90
5711;DHT22;61291;52.524;13.422;2022-12-29T10:19:39;13.00;99.90
5711;DHT22;61291;52.524;13.422;2022-12-29T10:25:16;12.90;99.90
5711;DHT22;61291;52.524;13.422;2022-12-29T10:27:43;13.00;99.90
5711;DHT22;61291;52.524;13.422;2022-12-29T10:30:12;13.20;99.90
5711;DHT22;61291;52.524;13.422;2022-12-29T10:32:58;13.30;99.90
5711;DHT22;61291;52.524;13.422;2022-12-29T10:35:32;13.50;99.90
5711;DHT22;61291;52.524;13.422;2022-12-29T10:38:11;13.80;99.90
5711;DHT22;61291;52.524;13.422;2022-12-29T10:40:58;14.20;99.90
5711;DHT22;61291;52.524;13.422;2022-12-29T10:43:31;14.60;99.90
5711;DHT22;61291;52.524;13.422;2022-12-29T10:46:05;14.90;99.90
5711;DHT22;61291;52.524;13.422;2022-12-29T10:48:34;15.00;99.90
5711;DHT22;61291;52.524;13.422;2022-12-29T10:51:02;14.90;99.90
5711;DHT22;61291;52.524;13.422;2022-12-29T10:53:40;14.90;99.90
5711;DHT22;61291;52.524;13.422;2022-12-29T10:56:34;14.70;99.90
5711;DHT22;61291;52.524;13.422;2022-12-29T10:59:06;14.70;99.90
5711;DHT22;61291;52.524;13.422;2022-12-29T11:01:39;14.70;99.90
5711;DHT22;61291;52.524;13.422;2022-12-29T11:07:07;14.60;99.90
5711;DHT22;61291;52.524;13.422;2022-12-29T11:09:36;14.70;99.90
5711;DHT22;61291;52.524;13.422;2022-12-29T11:12:37;14.90;99.90
5711;DHT22;61291;52.524;13.422;2022-12-29T11:17:43;14.80;99.90
5711;DHT22;61291;52.524;13.422;2022-12-29T11:20:31;14.70;99.90
5711;DHT22;61291;52.524;13.422;2022-12-29T11:22:57;14.80;99.90
5711;DHT22;61291;52.524;13.422;2022-12-29T11:25:22;14.70;99.90
5711;DHT22;61291;52.524;13.422;2022-12-29T11:28:00;14.70;99.90
5711;DHT22;61291;52.524;13.422;2022-12-29T11:30:29;14.70;99.90
5711;DHT22;61291;52.524;13.422;2022-12-29T11:32:55;14.60;99.90
5711;DHT22;61291;52.524;13.422;2022-12-29T11:35:34;14.50;99.90
5711;DHT22;61291;52.524;13.422;2022-12-29T11:38:02;14.50;99.90
5711;DHT22;61291;52.524;13.422;2022-12-29T11:40:27;14.40;99.90
5711;DHT22;61291;52.524;13.422;2022-12-29T11:43:03;14.40;99.90
5711;DHT22;61291;52.524;13.422;2022-12-29T11:45:45;14.40;99.90
5711;DHT22;61291;52.524;13.422;2022-12-29T11:48:19;14.30;99.90
5711;DHT22;61291;52.524;13.422;2022-12-29T11:50:55;14.20;99.90
5711;DHT22;61291;52.524;13.422;2022-12-29T11:53:39;14.10;99.90
5711;DHT22;61291;52.524;13.422;2022-12-29T11:56:15;14.10;99.90
5711;DHT22;61291;52.524;13.422;2022-12-29T11:58:41;14.10;99.90
5711;DHT22;61291;52.524;13.422;2022-12-29T12:01:16;14.10;99.90
5711;DHT22;61291;52.524;13.422;2022-12-29T12:03:52;14.00;99.90
5711;DHT22;61291;52.524;13.422;2022-12-29T12:06:23;14.00;99.90
5711;DHT22;61291;52.524;13.422;2022-12-29T12:08:59;13.90;99.90
5711;DHT22;61291;52.524;13.422;2022-12-29T12:11:34;13.60;99.90
5711;DHT22;61291;52.524;13.422;2022-12-29T12:16:40;13.20;99.90
5711;DHT22;61291;52.524;13.422;2022-12-29T12:19:32;13.00;99.90
5711;DHT22;61291;52.524;13.422;2022-12-29T12:24:59;12.70;99.90
5711;DHT22;61291;52.524;13.422;2022-12-29T12:27:38;12.70;99.90
5711;DHT22;61291;52.524;13.422;2022-12-29T12:30:14;12.50;99.90
5711;DHT22;61291;52.524;13.422;2022-12-29T12:33:03;12.50;99.90
5711;DHT22;61291;52.524;13.422;2022-12-29T12:38:54;12.70;99.90
5711;DHT22;61291;52.524;13.422;2022-12-29T12:47:18;12.80;99.90
5711;DHT22;61291;52.524;13.422;2022-12-29T12:50:18;12.90;99.90
5711;DHT22;61291;52.524;13.422;2022-12-29T13:07:11;12.60;99.90
5711;DHT22;61291;52.524;13.422;2022-12-29T13:09:52;12.40;99.90
5711;DHT22;61291;52.524;13.422;2022-12-29T13:12:36;12.20;99.90
5711;DHT22;61291;52.524;13.422;2022-12-29T13:15:14;12.00;99.90
5711;DHT22;61291;52.524;13.422;2022-12-29T13:17:49;11.80;99.90
5711;DHT22;61291;52.524;13.422;2022-12-29T13:20:39;11.80;99.90
5711;DHT22;61291;52.524;13.422;2022-12-29T13:23:22;11.80;99.90
5711;DHT22;61291;52.524;13.422;2022-12-29T13:26:10;11.80;99.90
5711;DHT22;61291;52.524;13.422;2022-12-29T13:37:13;11.60;99.90
5711;DHT22;61291;52.524;13.422;2022-12-29T13:39:54;11.50;99.90
5711;DHT22;61291;52.524;13.422;2022-12-29T13:42:21;11.40;99.90
5711;DHT22;61291;52.524;13.422;2022-12-29T13:45:02;11.30;99.90
5711;DHT22;61291;52.524;13.422;2022-12-29T13:47:34;11.40;99.90
5711;DHT22;61291;52.524;13.422;2022-12-29T13:50:03;11.40;99.90
5711;DHT22;61291;52.524;13.422;2022-12-29T13:52:37;11.30;99.90
5711;DHT22;61291;52.524;13.422;2022-12-29T13:55:20;11.30;99.90
5711;DHT22;61291;52.524;13.422;2022-12-29T13:58:03;11.30;99.90
5711;DHT22;61291;52.524;13.422;2022-12-29T14:00:35;11.30;99.90
5711;DHT22;61291;52.524;13.422;2022-12-29T14:03:28;11.30;99.90
5711;DHT22;61291;52.524;13.422;2022-12-29T14:08:39;11.20;99.90
5711;DHT22;61291;52.524;13.422;2022-12-29T14:11:09;11.10;99.90
5711;DHT22;61291;52.524;13.422;2022-12-29T14:13:40;11.00;99.90
5711;DHT22;61291;52.524;13.422;2022-12-29T14:16:25;11.00;99.90
5711;DHT22;61291;52.524;13.422;2022-12-29T14:18:51;10.90;99.90
5711;DHT22;61291;52.524;13.422;2022-12-29T14:21:21;10.80;99.90
5711;DHT22;61291;52.524;13.422;2022-12-29T14:23:50;10.70;99.90
5711;DHT22;61291;52.524;13.422;2022-12-29T14:28:57;10.70;99.90
5711;DHT22;61291;52.524;13.422;2022-12-29T14:31:40;10.60;99.90
5711;DHT22;61291;52.524;13.422;2022-12-29T14:36:40;10.50;99.90
5711;DHT22;61291;52.524;13.422;2022-12-29T14:39:28;10.40;99.90
5711;DHT22;61291;52.524;13.422;2022-12-29T14:44:31;10.40;99.90
5711;DHT22;61291;52.524;13.422;2022-12-29T14:47:00;10.30;99.90
5711;DHT22;61291;52.524;13.422;2022-12-29T14:49:31;10.40;99.90
5711;DHT22;61291;52.524;13.422;2022-12-29T14:59:47;10.60;99.90
5711;DHT22;61291;52.524;13.422;2022-12-29T15:02:20;10.70;99.90
5711;DHT22;61291;52.524;13.422;2022-12-29T15:04:48;10.70;99.90
5711;DHT22;61291;52.524;13.422;2022-12-29T15:07:15;10.70;99.90
5711;DHT22;61291;52.524;13.422;2022-12-29T15:09:45;10.80;99.90
5711;DHT22;61291;52.524;13.422;2022-12-29T15:17:43;10.80;99.90
5711;DHT22;61291;52.524;13.422;2022-12-29T15:20:28;11.00;99.90
5711;DHT22;61291;52.524;13.422;2022-12-29T15:23:12;11.10;99.90
5711;DHT22;61291;52.524;13.422;2022-12-29T15:25:56;11.10;99.90
5711;DHT22;61291;52.524;13.422;2022-12-29T15:28:23;11.00;99.90
5711;DHT22;61291;52.524;13.422;2022-12-29T15:30:53;11.00;99.90
5711;DHT22;61291;52.524;13.422;2022-12-29T15:33:22;10.70;99.90
5711;DHT22;61291;52.524;13.422;2022-12-29T15:35:52;10.40;99.90
5711;DHT22;61291;52.524;13.422;2022-12-29T15:38:27;10.20;99.90
5711;DHT22;61291;52.524;13.422;2022-12-29T15:44:10;9.80;99.90
5711;DHT22;61291;52.524;13.422;2022-12-29T15:46:38;9.70;99.90
5711;DHT22;61291;52.524;13.422;2022-12-29T15:49:08;9.60;99.90
5711;DHT22;61291;52.524;13.422;2022-12-29T15:51:36;9.50;99.90
5711;DHT22;61291;52.524;13.422;2022-12-29T15:54:03;9.40;99.90
5711;DHT22;61291;52.524;13.422;2022-12-29T15:56:30;9.30;99.90
5711;DHT22;61291;52.524;13.422;2022-12-29T15:58:56;9.20;99.90
5711;DHT22;61291;52.524;13.422;2022-12-29T16:01:34;9.10;99.90
5711;DHT22;61291;52.524;13.422;2022-12-29T16:04:04;9.10;99.90
5711;DHT22;61291;52.524;13.422;2022-12-29T16:09:07;9.10;99.90
5711;DHT22;61291;52.524;13.422;2022-12-29T16:11:40;9.20;99.90
5711;DHT22;61291;52.524;13.422;2022-12-29T16:14:16;9.20;99.90
5711;DHT22;61291;52.524;13.422;2022-12-29T16:16:44;9.20;99.90
5711;DHT22;61291;52.524;13.422;2022-12-29T16:19:33;9.30;99.90
5711;DHT22;61291;52.524;13.422;2022-12-29T16:22:00;9.50;99.90
5711;DHT22;61291;52.524;13.422;2022-12-29T16:24:31;9.50;99.90
5711;DHT22;61291;52.524;13.422;2022-12-29T16:27:06;9.50;99.90
5711;DHT22;61291;52.524;13.422;2022-12-29T16:29:32;9.40;99.90
5711;DHT22;61291;52.524;13.422;2022-12-29T16:31:59;9.30;99.90
5711;DHT22;61291;52.524;13.422;2022-12-29T16:34:32;9.30;99.90
5711;DHT22;61291;52.524;13.422;2022-12-29T16:37:03;9.20;99.90
5711;DHT22;61291;52.524;13.422;2022-12-29T16:39:34;9.10;99.90
5711;DHT22;61291;52.524;13.422;2022-12-29T16:42:01;9.10;99.90
5711;DHT22;61291;52.524;13.422;2022-12-29T16:44:46;9.20;99.90
5711;DHT22;61291;52.524;13.422;2022-12-29T16:49:39;9.10;99.90
5711;DHT22;61291;52.524;13.422;2022-12-29T16:52:24;9.10;99.90
5711;DHT22;61291;52.524;13.422;2022-12-29T16:54:56;9.20;99.90
5711;DHT22;61291;52.524;13.422;2022-12-29T16:57:27;9.30;99.90
5711;DHT22;61291;52.524;13.422;2022-12-29T16:59:55;9.50;99.90
5711;DHT22;61291;52.524;13.422;2022-12-29T17:02:23;9.50;99.90
5711;DHT22;61291;52.524;13.422;2022-12-29T17:04:50;9.50;99.90
5711;DHT22;61291;52.524;13.422;2022-12-29T17:07:20;9.50;99.90
5711;DHT22;61291;52.524;13.422;2022-12-29T17:09:46;9.50;99.90
5711;DHT22;61291;52.524;13.422;2022-12-29T17:12:17;9.40;99.90
5711;DHT22;61291;52.524;13.422;2022-12-29T17:15:09;9.40;99.90
5711;DHT22;61291;52.524;13.422;2022-12-29T17:17:56;9.40;99.90
5711;DHT22;61291;52.524;13.422;2022-12-29T17:20:24;9.40;99.90
5711;DHT22;61291;52.524;13.422;2022-12-29T17:22:50;9.30;99.90
5711;DHT22;61291;52.524;13.422;2022-12-29T17:25:20;9.40;99.90
5711;DHT22;61291;52.524;13.422;2022-12-29T17:27:50;9.60;99.90
5711;DHT22;61291;52.524;13.422;2022-12-29T17:30:19;9.90;99.90
5711;DHT22;61291;52.524;13.422;2022-12-29T17:32:53;10.10;99.90
5711;DHT22;61291;52.524;13.422;2022-12-29T17:35:21;10.20;99.90
5711;DHT22;61291;52.524;13.422;2022-12-29T17:37:48;10.30;99.90
5711;DHT22;61291;52.524;13.422;2022-12-29T17:40:18;10.40;99.90
5711;DHT22;61291;52.524;13.422;2022-12-29T17:42:47;10.50;99.90
5711;DHT22;61291;52.524;13.422;2022-12-29T17:45:19;10.60;99.90